createdAt,value
2022-11-16T00:02:13.835Z,6.71
2022-11-16T00:04:41.704Z,6.72
2022-11-16T00:07:09.230Z,6.65
2022-11-16T00:09:36.866Z,6.71
2022-11-16T00:12:05.983Z,6.69
2022-11-16T00:14:35.164Z,6.70
2022-11-16T00:17:04.183Z,6.79
2022-11-16T00:19:31.654Z,6.74
2022-11-16T00:21:59.900Z,6.71
2022-11-16T00:24:27.696Z,6.79
2022-11-16T00:26:55.357Z,6.65
2022-11-16T00:29:24.949Z,6.76
2022-11-16T00:31:52.920Z,6.64
2022-11-16T00:34:22.621Z,6.74
2022-11-16T00:36:50.510Z,6.70
2022-11-16T00:39:18.388Z,6.84
2022-11-16T00:41:47.085Z,6.72
2022-11-16T00:44:14.735Z,6.73
2022-11-16T00:46:43.266Z,6.78
2022-11-16T00:49:10.754Z,6.77
2022-11-16T00:51:41.726Z,6.84
2022-11-16T00:54:10.142Z,6.92
2022-11-16T00:56:38.787Z,6.90
2022-11-16T00:59:21.374Z,6.86
2022-11-16T01:01:49.787Z,6.89
2022-11-16T01:04:17.449Z,7.00
2022-11-16T01:06:45.483Z,7.06
2022-11-16T01:09:12.897Z,6.73
2022-11-16T01:11:59.174Z,6.95
2022-11-16T01:14:29.618Z,6.93
2022-11-16T01:16:57.090Z,6.85
2022-11-16T01:19:24.531Z,6.86
2022-11-16T01:21:52.038Z,6.78
2022-11-16T01:24:19.965Z,6.92
2022-11-16T01:26:48.189Z,7.04
2022-11-16T01:29:15.710Z,7.06
2022-11-16T01:31:49.085Z,7.06
2022-11-16T01:34:16.732Z,7.07
2022-11-16T01:36:44.483Z,7.02
2022-11-16T01:39:12.751Z,6.85
2022-11-16T01:41:45.901Z,6.97
2022-11-16T01:44:14.756Z,6.98
2022-11-16T01:46:54.721Z,7.03
2022-11-16T01:49:22.962Z,7.22
2022-11-16T01:51:57.552Z,7.21
2022-11-16T01:54:26.533Z,7.05
2022-11-16T01:57:00.689Z,6.99
2022-11-16T01:59:36.063Z,7.08
2022-11-16T02:02:05.172Z,7.12
2022-11-16T02:04:33.558Z,7.15
2022-11-16T02:07:14.208Z,7.23
2022-11-16T02:09:54.189Z,7.05
2022-11-16T02:12:44.725Z,7.06
2022-11-16T02:15:21.620Z,7.18
2022-11-16T02:17:57.717Z,6.98
2022-11-16T02:20:26.774Z,6.95
2022-11-16T02:22:54.544Z,6.99
2022-11-16T02:25:31.002Z,7.17
2022-11-16T02:28:07.807Z,7.17
2022-11-16T02:30:36.922Z,7.08
2022-11-16T02:33:04.947Z,7.21
2022-11-16T02:35:36.958Z,7.09
2022-11-16T02:38:11.599Z,7.13
2022-11-16T02:40:39.798Z,7.16
2022-11-16T02:43:08.014Z,7.13
2022-11-16T02:45:39.987Z,6.99
2022-11-16T02:48:11.888Z,7.18
2022-11-16T02:50:42.004Z,7.06
2022-11-16T02:53:09.748Z,7.08
2022-11-16T02:55:38.152Z,7.04
2022-11-16T02:58:05.949Z,7.26
2022-11-16T03:00:43.789Z,7.18
2022-11-16T03:03:21.567Z,7.05
2022-11-16T03:05:50.891Z,7.07
2022-11-16T03:08:18.483Z,7.15
2022-11-16T03:11:07.550Z,7.20
2022-11-16T03:13:35.751Z,7.21
2022-11-16T03:16:07.366Z,7.23
2022-11-16T03:18:35.277Z,7.17
2022-11-16T03:21:06.869Z,7.20
2022-11-16T03:23:34.376Z,7.28
2022-11-16T03:26:01.895Z,7.31
2022-11-16T03:31:54.757Z,7.30
2022-11-16T03:34:23.046Z,7.46
2022-11-16T03:36:51.197Z,7.46
2022-11-16T03:39:26.269Z,7.38
2022-11-16T03:41:54.421Z,7.18
2022-11-16T03:44:21.807Z,7.34
2022-11-16T03:46:51.690Z,7.28
2022-11-16T03:49:23.032Z,7.33
2022-11-16T03:51:52.838Z,7.40
2022-11-16T03:54:21.391Z,7.20
2022-11-16T03:56:49.049Z,7.18
2022-11-16T03:59:16.499Z,7.36
2022-11-16T04:01:45.903Z,7.02
2022-11-16T04:04:34.836Z,7.23
2022-11-16T04:07:22.705Z,7.19
2022-11-16T04:10:08.871Z,7.14
2022-11-16T04:13:02.061Z,7.23
2022-11-16T04:15:48.849Z,7.24
2022-11-16T04:18:35.169Z,7.19
2022-11-16T04:21:21.366Z,7.09
2022-11-16T04:24:07.597Z,7.23
2022-11-16T04:26:53.846Z,7.17
2022-11-16T04:29:21.285Z,7.39
2022-11-16T04:32:07.339Z,7.36
2022-11-16T04:34:53.522Z,7.44
2022-11-16T04:37:40.156Z,7.40
2022-11-16T04:40:08.714Z,7.56
2022-11-16T04:42:36.198Z,7.54
2022-11-16T04:45:23.499Z,7.63
2022-11-16T04:47:53.103Z,7.61
2022-11-16T04:50:25.756Z,7.50
2022-11-16T04:52:53.284Z,7.59
2022-11-16T04:55:21.151Z,7.44
2022-11-16T04:57:50.458Z,7.48
2022-11-16T05:00:17.909Z,7.39
2022-11-16T05:02:45.837Z,7.37
2022-11-16T05:05:13.447Z,7.39
2022-11-16T05:07:46.800Z,7.43
2022-11-16T05:10:21.046Z,7.45
2022-11-16T05:12:50.059Z,7.44
2022-11-16T05:15:19.907Z,7.41
2022-11-16T05:17:49.079Z,7.36
2022-11-16T05:20:41.214Z,7.29
2022-11-16T05:23:29.096Z,7.30
2022-11-16T05:26:00.366Z,7.42
2022-11-16T05:28:28.415Z,7.34
2022-11-16T05:30:56.557Z,7.36
2022-11-16T05:33:26.304Z,7.25
2022-11-16T05:35:53.719Z,7.32
2022-11-16T05:38:22.007Z,7.41
2022-11-16T05:40:53.382Z,7.24
2022-11-16T05:43:21.183Z,7.09
2022-11-16T05:46:29.848Z,7.29
2022-11-16T05:49:01.139Z,7.31
2022-11-16T05:51:28.656Z,7.14
2022-11-16T05:53:56.570Z,7.05
2022-11-16T05:56:24.706Z,7.23
2022-11-16T05:58:53.992Z,7.37
2022-11-16T06:01:21.899Z,7.39
2022-11-16T06:03:50.551Z,7.44
2022-11-16T06:06:20.529Z,7.50
2022-11-16T06:08:49.694Z,7.58
2022-11-16T06:11:21.695Z,7.48
2022-11-16T06:13:49.364Z,7.64
2022-11-16T06:16:17.875Z,7.49
2022-11-16T06:18:45.835Z,7.66
2022-11-16T06:21:16.443Z,7.75
2022-11-16T06:23:44.032Z,7.67
2022-11-16T06:26:12.357Z,7.91
2022-11-16T06:28:40.734Z,7.76
2022-11-16T06:31:08.296Z,7.85
2022-11-16T06:33:41.121Z,7.94
2022-11-16T06:36:22.372Z,8.00
2022-11-16T06:38:51.124Z,8.15
2022-11-16T06:41:21.607Z,8.13
2022-11-16T06:43:50.691Z,8.13
2022-11-16T06:46:21.361Z,8.13
2022-11-16T06:48:49.222Z,7.95
2022-11-16T06:51:18.376Z,7.97
2022-11-16T06:53:48.988Z,7.91
2022-11-16T06:56:16.609Z,7.89
2022-11-16T06:58:53.199Z,8.06
2022-11-16T07:01:22.028Z,8.12
2022-11-16T07:03:51.207Z,8.07
2022-11-16T07:06:20.161Z,8.04
2022-11-16T07:08:48.490Z,8.11
2022-11-16T07:11:20.684Z,8.06
2022-11-16T07:13:51.297Z,8.15
2022-11-16T07:16:19.125Z,8.28
2022-11-16T07:18:56.635Z,8.15
2022-11-16T07:21:24.569Z,8.01
2022-11-16T07:23:54.691Z,8.30
2022-11-16T07:26:24.181Z,8.22
2022-11-16T07:28:59.806Z,8.08
2022-11-16T07:31:28.456Z,8.04
2022-11-16T07:38:17.880Z,8.37
2022-11-16T07:40:46.581Z,8.23
2022-11-16T07:43:17.546Z,8.07
2022-11-16T07:49:10.950Z,8.05
2022-11-16T07:51:52.931Z,8.09
2022-11-16T07:54:40.658Z,8.12
2022-11-16T07:57:15.754Z,8.40
2022-11-16T08:00:22.080Z,8.58
2022-11-16T08:02:58.270Z,8.44
2022-11-16T08:05:26.741Z,8.17
2022-11-16T08:07:55.403Z,8.37
2022-11-16T08:10:25.512Z,8.37
2022-11-16T08:12:55.438Z,8.12
2022-11-16T08:15:24.918Z,8.14
2022-11-16T08:17:53.074Z,8.29
2022-11-16T08:20:21.133Z,8.35
2022-11-16T08:22:50.017Z,8.46
2022-11-16T08:25:18.560Z,8.39
2022-11-16T08:27:47.966Z,8.19
2022-11-16T08:30:18.247Z,8.41
2022-11-16T08:32:46.590Z,8.52
2022-11-16T08:35:15.745Z,8.53
2022-11-16T08:37:44.808Z,8.64
2022-11-16T08:40:14.777Z,8.62
2022-11-16T08:42:44.019Z,8.73
2022-11-16T08:45:12.797Z,8.60
2022-11-16T08:47:42.406Z,8.83
2022-11-16T08:50:10.037Z,8.78
2022-11-16T08:52:40.076Z,8.81
2022-11-16T08:55:08.134Z,8.79
2022-11-16T08:57:36.326Z,8.85
2022-11-16T09:00:11.362Z,8.82
2022-11-16T09:02:39.511Z,8.91
2022-11-16T09:05:08.342Z,9.10
2022-11-16T09:07:36.368Z,8.92
2022-11-16T09:10:04.633Z,9.19
2022-11-16T09:12:32.226Z,9.24
2022-11-16T09:15:01.434Z,9.29
2022-11-16T09:17:30.068Z,9.01
2022-11-16T09:19:57.652Z,9.14
2022-11-16T09:22:25.123Z,9.25
2022-11-16T09:24:52.867Z,9.02
2022-11-16T09:27:21.201Z,9.24
2022-11-16T09:29:48.796Z,9.21
2022-11-16T09:32:16.566Z,9.28
2022-11-16T09:34:44.212Z,9.34
2022-11-16T09:37:12.055Z,9.26
2022-11-16T09:39:39.789Z,9.26
2022-11-16T09:42:14.687Z,9.44
2022-11-16T09:44:42.318Z,9.45
2022-11-16T09:47:10.738Z,9.57
2022-11-16T09:49:39.536Z,9.34
2022-11-16T09:52:10.253Z,9.38
2022-11-16T09:54:39.673Z,9.44
2022-11-16T09:57:12.252Z,9.29
2022-11-16T09:59:40.637Z,9.29
2022-11-16T10:02:14.291Z,9.45
2022-11-16T10:04:54.989Z,9.54
2022-11-16T10:07:37.159Z,9.52
2022-11-16T10:10:04.851Z,9.72
2022-11-16T10:12:38.231Z,9.80
2022-11-16T10:15:25.410Z,9.64
2022-11-16T10:17:56.456Z,9.66
2022-11-16T10:20:36.269Z,9.62
2022-11-16T10:23:03.782Z,9.48
2022-11-16T10:25:44.461Z,9.50
2022-11-16T10:28:30.857Z,9.56
2022-11-16T10:30:58.365Z,9.50
2022-11-16T10:33:35.577Z,9.60
2022-11-16T10:36:09.540Z,9.56
2022-11-16T10:38:37.171Z,9.71
2022-11-16T10:41:17.130Z,9.59
2022-11-16T10:43:44.724Z,9.57
2022-11-16T10:46:18.058Z,9.64
2022-11-16T10:48:55.168Z,9.80
2022-11-16T10:51:22.672Z,9.87
2022-11-16T10:53:50.158Z,9.87
2022-11-16T10:56:31.999Z,9.73
2022-11-16T10:59:45.901Z,9.64
2022-11-16T11:02:40.506Z,9.74
2022-11-16T11:05:15.118Z,9.79
2022-11-16T11:07:44.515Z,9.96
2022-11-16T11:10:30.618Z,9.88
2022-11-16T11:13:02.526Z,9.58
2022-11-16T11:15:30.386Z,9.90
2022-11-16T11:18:13.449Z,9.62
2022-11-16T11:20:44.988Z,10.06
2022-11-16T11:23:31.190Z,10.00
2022-11-16T11:25:59.662Z,9.93
2022-11-16T11:28:28.614Z,9.94
2022-11-16T11:31:14.843Z,9.89
2022-11-16T11:33:44.289Z,10.11
2022-11-16T11:36:34.974Z,9.86
2022-11-16T11:39:04.154Z,9.85
2022-11-16T11:41:55.033Z,9.77
2022-11-16T11:44:22.457Z,9.88
2022-11-16T11:47:42.371Z,9.93
2022-11-16T11:49:42.307Z,10.14
2022-11-16T11:52:12.011Z,10.26
2022-11-16T11:54:45.640Z,9.74
2022-11-16T11:57:20.711Z,9.68
2022-11-16T11:59:48.409Z,10.01
2022-11-16T12:02:18.885Z,10.07
2022-11-16T12:04:49.684Z,10.05
2022-11-16T12:07:23.511Z,10.02
2022-11-16T12:10:04.346Z,10.14
2022-11-16T12:12:32.765Z,10.02
2022-11-16T12:15:44.159Z,10.02
2022-11-16T12:18:25.373Z,10.02
2022-11-16T12:21:06.032Z,10.00
2022-11-16T12:24:30.892Z,9.91
2022-11-16T12:27:04.935Z,10.18
2022-11-16T12:29:42.628Z,10.19
2022-11-16T12:32:39.645Z,9.98
2022-11-16T12:35:27.212Z,10.11
2022-11-16T12:38:10.790Z,10.06
2022-11-16T12:40:45.041Z,9.89
2022-11-16T12:43:31.537Z,10.04
2022-11-16T12:46:06.932Z,10.13
2022-11-16T12:48:34.708Z,10.20
2022-11-16T12:51:06.700Z,10.28
2022-11-16T12:53:53.533Z,9.97
2022-11-16T12:56:42.351Z,10.21
2022-11-16T12:59:13.707Z,10.08
2022-11-16T13:01:47.085Z,10.26
2022-11-16T13:04:17.965Z,10.07
2022-11-16T13:06:50.400Z,10.26
2022-11-16T13:09:20.802Z,10.01
2022-11-16T13:11:55.992Z,10.25
2022-11-16T13:14:33.818Z,10.13
2022-11-16T13:17:01.435Z,10.09
2022-11-16T13:19:29.999Z,10.05
2022-11-16T13:22:33.324Z,10.06
2022-11-16T13:25:03.958Z,10.02
2022-11-16T13:27:39.631Z,9.87
2022-11-16T13:30:22.773Z,9.95
2022-11-16T13:33:00.996Z,9.94
2022-11-16T13:35:28.589Z,9.98
2022-11-16T13:37:56.537Z,9.89
2022-11-16T13:40:25.458Z,9.78
2022-11-16T13:43:11.577Z,10.02
2022-11-16T13:45:45.959Z,9.91
2022-11-16T13:48:16.347Z,9.83
2022-11-16T13:50:51.187Z,10.01
2022-11-16T13:56:11.797Z,9.95
2022-11-16T13:58:43.773Z,9.94
2022-11-16T14:01:14.855Z,10.02
2022-11-16T14:03:42.761Z,10.07
2022-11-16T14:06:19.160Z,9.90
2022-11-16T14:08:48.425Z,9.93
2022-11-16T14:11:28.172Z,9.81
2022-11-16T14:13:56.016Z,10.00
2022-11-16T14:16:24.992Z,9.88
2022-11-16T14:18:54.078Z,9.99
2022-11-16T14:21:40.216Z,10.10
2022-11-16T14:24:22.390Z,10.09
2022-11-16T14:27:08.551Z,10.13
2022-11-16T14:29:40.144Z,9.92
2022-11-16T14:32:26.810Z,10.12
2022-11-16T14:34:56.128Z,9.95
2022-11-16T14:37:24.584Z,10.11
2022-11-16T14:39:52.251Z,10.12
2022-11-16T14:42:24.256Z,10.03
2022-11-16T14:44:57.964Z,10.09
2022-11-16T14:47:32.410Z,9.94
2022-11-16T14:49:59.876Z,10.00
2022-11-16T14:52:37.060Z,10.09
2022-11-16T14:55:08.275Z,9.94
2022-11-16T14:57:38.312Z,9.91
2022-11-16T15:00:10.168Z,9.89
2022-11-16T15:02:38.237Z,9.93
2022-11-16T15:05:05.946Z,9.76
2022-11-16T15:07:35.212Z,9.87
2022-11-16T15:10:06.309Z,9.74
2022-11-16T15:12:42.104Z,9.82
2022-11-16T15:15:12.728Z,9.93
2022-11-16T15:17:42.302Z,9.88
2022-11-16T15:20:17.564Z,9.86
2022-11-16T15:22:47.534Z,9.92
2022-11-16T15:25:29.990Z,9.99
2022-11-16T15:28:26.728Z,9.94
2022-11-16T15:30:58.063Z,9.66
2022-11-16T15:33:26.606Z,9.74
2022-11-16T15:35:58.801Z,9.81
2022-11-16T15:39:22.877Z,9.68
2022-11-16T15:41:51.524Z,9.52
2022-11-16T15:44:19.921Z,9.65
2022-11-16T15:46:48.653Z,9.59
2022-11-16T15:49:28.185Z,9.53
2022-11-16T15:51:55.577Z,9.66
2022-11-16T15:54:25.965Z,9.60
2022-11-16T15:56:54.728Z,9.59
2022-11-16T15:59:27.078Z,9.48
2022-11-16T16:01:56.891Z,9.54
2022-11-16T16:04:24.622Z,9.56
2022-11-16T16:07:38.743Z,9.40
2022-11-16T16:10:18.545Z,9.32
2022-11-16T16:12:59.064Z,9.38
2022-11-16T16:15:41.373Z,9.35
2022-11-16T16:18:13.732Z,9.26
2022-11-16T16:20:46.192Z,9.28
2022-11-16T16:23:15.504Z,9.31
2022-11-16T16:25:47.518Z,9.40
2022-11-16T16:28:17.880Z,9.34
2022-11-16T16:30:48.009Z,9.42
2022-11-16T16:33:17.934Z,9.44
2022-11-16T16:35:49.903Z,9.29
2022-11-16T16:38:17.405Z,9.43
2022-11-16T16:40:44.939Z,9.21
2022-11-16T16:43:12.631Z,9.20
2022-11-16T16:45:48.423Z,9.26
2022-11-16T16:48:16.066Z,9.35
2022-11-16T16:50:43.921Z,9.34
2022-11-16T16:53:15.750Z,9.38
2022-11-16T16:55:43.760Z,9.29
2022-11-16T16:58:15.880Z,9.24
2022-11-16T17:00:43.515Z,9.28
2022-11-16T17:03:22.445Z,9.16
2022-11-16T17:05:50.858Z,9.11
2022-11-16T17:08:18.990Z,9.13
2022-11-16T17:10:50.144Z,9.24
2022-11-16T17:13:20.957Z,9.17
2022-11-16T17:15:48.955Z,9.17
2022-11-16T17:18:17.914Z,9.19
2022-11-16T17:20:46.020Z,9.27
2022-11-16T17:23:15.296Z,9.12
2022-11-16T17:25:46.929Z,9.14
2022-11-16T17:28:14.469Z,9.18
2022-11-16T17:30:41.986Z,9.25
2022-11-16T17:33:09.974Z,9.22
2022-11-16T17:35:40.384Z,9.25
2022-11-16T17:38:09.914Z,9.24
2022-11-16T17:40:38.861Z,9.28
2022-11-16T17:43:06.267Z,9.07
2022-11-16T17:45:37.003Z,9.16
2022-11-16T17:48:05.362Z,9.24
2022-11-16T17:50:34.211Z,9.24
2022-11-16T17:53:01.552Z,9.29
2022-11-16T17:55:31.625Z,9.32
2022-11-16T17:58:01.871Z,9.48
2022-11-16T18:00:32.071Z,9.32
2022-11-16T18:03:02.098Z,9.23
2022-11-16T18:05:31.143Z,9.35
2022-11-16T18:07:58.496Z,9.33
2022-11-16T18:10:26.043Z,9.32
2022-11-16T18:12:54.341Z,9.26
2022-11-16T18:15:28.813Z,9.30
2022-11-16T18:17:57.783Z,9.20
2022-11-16T18:20:27.823Z,9.21
2022-11-16T18:22:58.525Z,9.17
2022-11-16T18:25:25.944Z,9.30
2022-11-16T18:27:54.158Z,9.28
2022-11-16T18:30:21.923Z,9.24
2022-11-16T18:32:49.511Z,9.25
2022-11-16T18:35:17.139Z,9.10
2022-11-16T18:37:46.124Z,9.14
2022-11-16T18:40:16.554Z,9.14
2022-11-16T18:42:43.959Z,9.11
2022-11-16T18:45:11.347Z,9.07
2022-11-16T18:47:39.573Z,9.07
2022-11-16T18:50:20.128Z,9.04
2022-11-16T18:52:50.040Z,9.01
2022-11-16T18:55:17.915Z,9.05
2022-11-16T18:57:46.438Z,9.03
2022-11-16T19:00:15.334Z,9.00
2022-11-16T19:02:42.875Z,9.00
2022-11-16T19:05:10.879Z,8.93
2022-11-16T19:07:38.357Z,8.83
2022-11-16T19:10:05.960Z,8.95
2022-11-16T19:12:34.774Z,8.95
2022-11-16T19:15:02.279Z,9.00
2022-11-16T19:17:31.403Z,8.93
2022-11-16T19:19:58.908Z,8.94
2022-11-16T19:22:26.543Z,8.93
2022-11-16T19:24:54.297Z,8.89
2022-11-16T19:27:21.825Z,8.95
2022-11-16T19:29:51.546Z,8.92
2022-11-16T19:32:20.291Z,8.97
2022-11-16T19:34:48.096Z,8.86
2022-11-16T19:37:15.493Z,8.95
2022-11-16T19:39:42.900Z,8.88
2022-11-16T19:42:10.298Z,8.82
2022-11-16T19:44:37.592Z,8.91
2022-11-16T19:47:06.567Z,8.99
2022-11-16T19:49:34.109Z,8.98
2022-11-16T19:52:01.490Z,9.04
2022-11-16T19:54:30.867Z,9.07
2022-11-16T19:56:59.564Z,9.04
2022-11-16T19:59:27.211Z,8.95
2022-11-16T20:01:54.932Z,8.98
2022-11-16T20:04:22.388Z,9.09
2022-11-16T20:06:50.180Z,8.94
2022-11-16T20:09:17.761Z,9.11
2022-11-16T20:11:45.695Z,9.09
2022-11-16T20:14:13.998Z,9.02
2022-11-16T20:16:42.924Z,8.97
2022-11-16T20:19:10.440Z,8.82
2022-11-16T20:21:41.874Z,9.01
2022-11-16T20:24:15.817Z,8.93
2022-11-16T20:26:44.279Z,8.82
2022-11-16T20:29:12.170Z,8.83
2022-11-16T20:31:42.745Z,8.90
2022-11-16T20:34:14.154Z,8.92
2022-11-16T20:36:42.582Z,8.85
2022-11-16T20:39:14.415Z,8.83
2022-11-16T20:41:44.052Z,8.90
2022-11-16T20:44:16.565Z,8.92
2022-11-16T20:46:45.312Z,8.85
2022-11-16T20:49:12.821Z,8.85
2022-11-16T20:51:40.251Z,8.75
2022-11-16T20:54:07.840Z,8.79
2022-11-16T20:56:35.873Z,8.77
2022-11-16T20:59:03.515Z,8.87
2022-11-16T21:01:34.208Z,8.70
2022-11-16T21:04:02.753Z,8.77
2022-11-16T21:06:30.360Z,8.79
2022-11-16T21:08:57.866Z,8.73
2022-11-16T21:11:29.363Z,8.80
2022-11-16T21:14:15.790Z,8.80
2022-11-16T21:16:44.205Z,8.66
2022-11-16T21:19:11.803Z,8.71
2022-11-16T21:21:41.028Z,8.67
2022-11-16T21:24:09.040Z,8.59
2022-11-16T21:26:37.385Z,8.49
2022-11-16T21:29:05.224Z,8.48
2022-11-16T21:31:34.111Z,8.42
2022-11-16T21:34:01.940Z,8.37
2022-11-16T21:36:30.304Z,8.32
2022-11-16T21:39:00.769Z,8.31
2022-11-16T21:41:28.434Z,8.40
2022-11-16T21:43:56.209Z,8.45
2022-11-16T21:46:24.998Z,8.41
2022-11-16T21:48:54.430Z,8.32
2022-11-16T21:51:22.447Z,8.32
2022-11-16T21:53:49.946Z,8.32
2022-11-16T21:56:19.957Z,8.33
2022-11-16T21:58:47.836Z,8.31
2022-11-16T22:01:18.178Z,8.20
2022-11-16T22:03:45.642Z,8.36
2022-11-16T22:06:31.896Z,8.38
2022-11-16T22:08:59.402Z,8.23
2022-11-16T22:11:27.017Z,8.22
2022-11-16T22:13:54.664Z,8.15
2022-11-16T22:16:25.374Z,8.12
2022-11-16T22:18:54.242Z,8.18
2022-11-16T22:21:21.606Z,7.94
2022-11-16T22:23:49.129Z,8.15
2022-11-16T22:26:16.992Z,8.10
2022-11-16T22:28:44.493Z,8.08
2022-11-16T22:31:15.393Z,7.98
2022-11-16T22:33:42.813Z,8.11
2022-11-16T22:36:10.412Z,8.07
2022-11-16T22:38:38.869Z,8.00
2022-11-16T22:41:06.434Z,8.07
2022-11-16T22:43:36.285Z,7.86
2022-11-16T22:46:04.729Z,8.08
2022-11-16T22:48:36.821Z,8.05
2022-11-16T22:51:05.043Z,8.03
2022-11-16T22:53:33.283Z,8.06
2022-11-16T22:56:05.169Z,8.07
2022-11-16T22:58:33.159Z,7.98
2022-11-16T23:01:00.766Z,8.06
2022-11-16T23:03:28.391Z,8.00
2022-11-16T23:05:55.900Z,8.02
2022-11-16T23:08:25.271Z,7.98
2022-11-16T23:11:38.061Z,8.14
2022-11-16T23:14:25.934Z,8.22
2022-11-16T23:16:53.439Z,8.23
2022-11-16T23:19:39.887Z,8.26
2022-11-16T23:22:26.685Z,8.18
2022-11-16T23:25:12.966Z,8.14
2022-11-16T23:27:41.545Z,8.29
2022-11-16T23:30:12.488Z,8.35
2022-11-16T23:32:40.803Z,8.31
2022-11-16T23:35:09.633Z,8.38
2022-11-16T23:37:55.584Z,8.39
2022-11-16T23:40:24.042Z,8.35
2022-11-16T23:43:13.766Z,8.48
2022-11-16T23:45:41.348Z,8.51
2022-11-16T23:48:09.067Z,8.44
2022-11-16T23:50:37.488Z,8.47
2022-11-16T23:53:05.424Z,8.52
2022-11-16T23:55:33.334Z,8.45
2022-11-16T23:58:00.961Z,8.45
